KTUL/TUL METAR and TAF weather

Enter ICAO airport designator
Station Type Date Time Source
KTUL METAR 2024/06/15 23:53 UTC NOAA

KTUL 152353Z 18014KT 10SM FEW060 SCT250 32/19 A2983 RMK AO2 SLP093 T03220194 10339 20322 56009


Station Type Date Time Source
KTUL Decoded METAR 2024/06/15 23:53 UTC NOAA

TULSA INTERNATIONAL AIRPORT, OK, United States (KTUL) 36-12N 95-53W 207M
Jun 15, 2024 - 07:53 PM EDT / 2024.06.15 2353 UTC
Wind: from the S (180 degrees) at 16 MPH (14 KT):0
Visibility: 10 mile(s):0
Sky conditions: partly cloudy
Temperature: 90.0 F (32.2 C)
Dew Point: 66.9 F (19.4 C)
Relative Humidity: 46%
Pressure (altimeter): 29.83 in. Hg (1010 hPa)
Pressure tendency: 0.03 inches (0.9 hPa) lower than three hours ago
ob: KTUL 152353Z 18014KT 10SM FEW060 SCT250 32/19 A2983 RMK AO2 SLP093 T03220194 10339 20322 56009
cycle: 0

Station Type Date Time Source
KTUL TAF 2024/06/15 18:22 UTC NOAA